Time;durP1;ratioP1;P1;durP2;ratioP2;P2;SDS_P1;SDS_P2;PMS_P1;PMS_P2;Temp;Humidity;BMP_temperature;BMP_pressure;BME280_temperature;BME280_humidity;BME280_pressure;Samples;Min_cycle;Max_cycle;Signal;HPM_P1;HPM_P2
2022/08/03 00:01:39;;;;;;;5.18;4.88;;;25.30;57.50;;;;;;5051164;28;20191;-87
2022/08/03 00:04:05;;;;;;;5.00;4.60;;;25.10;58.10;;;;;;5050435;28;20192;-87
2022/08/03 00:06:31;;;;;;;4.75;4.45;;;25.10;58.00;;;;;;5062317;28;20222;-86
2022/08/03 00:08:57;;;;;;;4.88;4.57;;;25.10;57.80;;;;;;5037925;28;20232;-87
2022/08/03 00:11:23;;;;;;;4.88;4.57;;;25.20;57.70;;;;;;5067691;28;20254;-87
2022/08/03 00:13:49;;;;;;;5.15;4.75;;;25.10;59.00;;;;;;5071350;28;20177;-88
2022/08/03 00:16:16;;;;;;;6.80;5.10;;;25.10;58.30;;;;;;5072384;28;20199;-88
2022/08/03 00:18:42;;;;;;;7.80;4.70;;;25.10;58.20;;;;;;5059091;28;20818;-88
2022/08/03 00:21:07;;;;;;;5.20;4.80;;;25.10;58.50;;;;;;5077399;28;20318;-88
2022/08/03 00:23:33;;;;;;;5.45;5.05;;;24.80;59.50;;;;;;5070585;28;20212;-88
2022/08/03 00:25:59;;;;;;;5.35;4.82;;;24.70;60.10;;;;;;5065323;28;20253;-88
2022/08/03 00:28:25;;;;;;;5.32;4.95;;;24.60;60.30;;;;;;5067754;28;20208;-88
2022/08/03 00:30:51;;;;;;;5.07;4.68;;;24.60;60.80;;;;;;5068408;28;20282;-88
2022/08/03 00:33:17;;;;;;;4.90;4.60;;;24.30;61.90;;;;;;5054203;28;20675;-88
2022/08/03 00:35:42;;;;;;;5.10;4.80;;;24.30;61.90;;;;;;5064717;28;20195;-88
2022/08/03 00:38:08;;;;;;;6.60;4.80;;;24.40;61.00;;;;;;5069657;28;20287;-88
2022/08/03 00:40:34;;;;;;;4.97;4.55;;;24.50;61.10;;;;;;5071979;28;20529;-88
2022/08/03 00:43:04;;;;;;;5.03;4.72;;;24.50;61.20;;;;;;5068288;28;20191;-88
2022/08/03 00:45:33;;;;;;;5.30;4.93;;;24.30;62.00;;;;;;5060639;28;20298;-88
2022/08/03 00:48:00;;;;;;;5.40;5.00;;;24.20;62.90;;;;;;5068693;28;20204;-88
2022/08/03 00:50:28;;;;;;;4.85;4.55;;;24.00;63.20;;;;;;5065327;28;20807;-87
2022/08/03 00:52:56;;;;;;;4.93;4.63;;;23.90;64.20;;;;;;5066475;28;20239;-88
2022/08/03 00:55:23;;;;;;;4.60;4.30;;;23.90;64.20;;;;;;5049240;28;20214;-88
2022/08/03 00:57:49;;;;;;;5.82;4.75;;;23.90;64.20;;;;;;5063482;28;20212;-88
2022/08/03 01:00:18;;;;;;;5.03;4.63;;;23.90;63.90;;;;;;5065044;28;20179;-88
2022/08/03 01:02:44;;;;;;;5.10;4.80;;;24.00;63.20;;;;;;5041413;28;20191;-88
2022/08/03 01:05:10;;;;;;;5.65;5.13;;;24.20;62.50;;;;;;5061849;28;20191;-88
2022/08/03 01:07:45;;;;;;;5.05;4.65;;;24.20;62.40;;;;;;5071065;28;20972;-87
2022/08/03 01:10:29;;;;;;;5.20;4.90;;;24.20;62.30;;;;;;5040326;28;20207;-88
2022/08/03 01:13:18;;;;;;;6.20;4.72;;;24.20;62.00;;;;;;5056329;28;20208;-88
2022/08/03 01:16:02;;;;;;;4.68;4.35;;;24.10;62.80;;;;;;5017511;28;20198;-87
2022/08/03 01:18:37;;;;;;;5.20;4.75;;;24.10;63.10;;;;;;5069574;28;20199;-87
2022/08/03 01:21:10;;;;;;;5.28;4.88;;;24.20;62.70;;;;;;5066045;28;20187;-87
2022/08/03 01:23:49;;;;;;;5.10;4.70;;;24.10;63.60;;;;;;5047937;28;20192;-88
2022/08/03 01:26:37;;;;;;;5.10;4.80;;;24.20;63.40;;;;;;5045964;28;20191;-88
2022/08/03 01:29:41;;;;;;;5.13;4.72;;;24.20;63.20;;;;;;5041356;28;20302;-88
2022/08/03 01:32:17;;;;;;;5.00;4.70;;;24.10;63.50;;;;;;5061298;28;20241;-87
2022/08/03 01:35:01;;;;;;;5.75;5.35;;;24.00;64.10;;;;;;5054448;28;20680;-88
2022/08/03 01:37:35;;;;;;;5.60;5.10;;;24.00;64.30;;;;;;5060825;28;20180;-87
2022/08/03 01:40:04;;;;;;;5.10;4.80;;;24.00;64.70;;;;;;5062899;28;20180;-86
2022/08/03 01:42:31;;;;;;;5.22;4.93;;;24.00;65.30;;;;;;5067258;28;20341;-88
2022/08/03 01:44:59;;;;;;;5.28;4.88;;;24.00;64.80;;;;;;5063624;28;20809;-87
2022/08/03 01:47:26;;;;;;;5.20;4.80;;;24.00;64.90;;;;;;5031680;28;20188;-87
2022/08/03 01:49:53;;;;;;;5.15;4.85;;;23.90;65.20;;;;;;5066489;28;20215;-88
2022/08/03 01:52:20;;;;;;;5.10;4.80;;;24.00;64.80;;;;;;5045511;28;20187;-88
2022/08/03 01:54:49;;;;;;;5.20;4.80;;;24.00;65.40;;;;;;5066048;28;20251;-88
2022/08/03 01:57:16;;;;;;;5.18;4.88;;;24.00;65.10;;;;;;5065253;28;20261;-88
2022/08/03 01:59:43;;;;;;;5.50;5.15;;;23.90;65.20;;;;;;5050847;28;20188;-88
2022/08/03 02:02:12;;;;;;;5.00;4.70;;;23.80;65.60;;;;;;5066765;28;20196;-87
2022/08/03 02:04:40;;;;;;;4.90;4.57;;;23.80;65.30;;;;;;5053209;28;20280;-87
2022/08/03 02:07:07;;;;;;;5.10;4.80;;;23.80;65.40;;;;;;5039488;28;20185;-87
2022/08/03 02:09:37;;;;;;;5.00;4.70;;;23.80;65.90;;;;;;5046598;28;20278;-88
2022/08/03 02:12:10;;;;;;;5.28;4.88;;;23.80;65.40;;;;;;5063688;28;20186;-88
2022/08/03 02:14:38;;;;;;;5.60;5.20;;;23.60;67.40;;;;;;5069617;28;20835;-88
2022/08/03 02:17:05;;;;;;;5.05;4.50;;;23.40;68.10;;;;;;5061066;28;20183;-88
2022/08/03 02:19:32;;;;;;;5.50;5.18;;;23.30;69.30;;;;;;5067127;28;20204;-87
2022/08/03 02:21:58;;;;;;;5.47;5.18;;;23.20;68.70;;;;;;5047894;28;20196;-87
2022/08/03 02:24:24;;;;;;;5.30;5.00;;;23.20;68.50;;;;;;5047968;28;20191;-87
2022/08/03 02:26:52;;;;;;;5.45;4.97;;;23.30;68.60;;;;;;5050488;28;20199;-87
2022/08/03 02:29:22;;;;;;;5.60;5.30;;;23.30;67.60;;;;;;5045212;28;20230;-87
2022/08/03 02:31:49;;;;;;;5.10;4.80;;;23.30;67.60;;;;;;5068525;28;20760;-86
2022/08/03 02:34:17;;;;;;;5.47;5.18;;;23.40;67.20;;;;;;5061587;28;20611;-86
2022/08/03 02:36:48;;;;;;;5.50;5.10;;;23.50;66.80;;;;;;5045961;28;20257;-87
2022/08/03 02:39:19;;;;;;;5.15;4.80;;;23.60;66.60;;;;;;5062442;28;20727;-87
2022/08/03 02:41:48;;;;;;;5.63;5.00;;;23.50;66.90;;;;;;5066658;28;20184;-87
2022/08/03 02:44:18;;;;;;;5.28;4.97;;;23.40;66.80;;;;;;5073857;28;20184;-87
2022/08/03 02:46:45;;;;;;;5.68;5.18;;;23.30;67.60;;;;;;5070128;28;20191;-87
2022/08/03 02:49:15;;;;;;;6.25;4.90;;;23.30;67.40;;;;;;5070576;28;20203;-87
2022/08/03 02:51:41;;;;;;;6.25;5.65;;;23.30;67.60;;;;;;5064243;28;20215;-87
2022/08/03 02:54:08;;;;;;;7.90;5.72;;;23.10;68.00;;;;;;5067127;28;20687;-87
2022/08/03 02:56:36;;;;;;;6.40;5.10;;;23.10;68.90;;;;;;5071076;28;20183;-87
2022/08/03 02:59:03;;;;;;;5.85;5.35;;;23.10;68.70;;;;;;5070003;28;20568;-86
2022/08/03 03:01:30;;;;;;;5.63;5.20;;;23.10;68.20;;;;;;5068409;28;20180;-87
2022/08/03 03:03:57;;;;;;;23.98;6.90;;;23.20;68.40;;;;;;5061498;28;20668;-87
2022/08/03 03:06:26;;;;;;;16.83;6.32;;;23.20;68.70;;;;;;5064371;28;20199;-87
2022/08/03 03:08:53;;;;;;;9.00;5.32;;;23.10;68.20;;;;;;5064317;28;20269;-87
2022/08/03 03:11:21;;;;;;;5.47;4.95;;;23.20;68.40;;;;;;5072925;28;20253;-87
2022/08/03 03:13:48;;;;;;;5.78;5.28;;;23.10;69.30;;;;;;5055511;28;20196;-87
2022/08/03 03:16:15;;;;;;;5.72;5.28;;;23.10;68.90;;;;;;5049323;28;20202;-86
2022/08/03 03:18:43;;;;;;;5.18;4.70;;;23.10;69.40;;;;;;5072843;28;20707;-87
2022/08/03 03:21:09;;;;;;;5.72;5.32;;;23.10;68.80;;;;;;5063105;28;20190;-87
2022/08/03 03:23:37;;;;;;;5.25;4.95;;;23.00;68.60;;;;;;5071518;28;20191;-87
2022/08/03 03:26:04;;;;;;;5.07;4.78;;;23.00;68.40;;;;;;5073514;28;20187;-87
2022/08/03 03:28:31;;;;;;;5.18;4.88;;;23.00;68.20;;;;;;5066793;28;20285;-87
2022/08/03 03:30:57;;;;;;;5.45;5.00;;;23.00;68.10;;;;;;5046111;28;20212;-87
2022/08/03 03:33:24;;;;;;;5.60;5.20;;;23.00;67.80;;;;;;5061088;28;20191;-88
2022/08/03 03:35:53;;;;;;;5.80;5.35;;;22.90;68.00;;;;;;5066253;28;20175;-87
2022/08/03 03:38:19;;;;;;;6.13;5.18;;;22.90;68.10;;;;;;5029365;28;20211;-86
2022/08/03 03:40:46;;;;;;;5.35;5.05;;;22.80;68.30;;;;;;5064387;28;20191;-87
2022/08/03 03:43:17;;;;;;;5.05;4.75;;;22.80;68.10;;;;;;5071693;28;20245;-88
2022/08/03 03:45:45;;;;;;;5.95;5.40;;;22.90;68.30;;;;;;5022010;28;20192;-88
2022/08/03 03:48:15;;;;;;;5.20;4.90;;;22.80;68.20;;;;;;5014441;28;20270;-87
2022/08/03 03:50:45;;;;;;;5.63;5.28;;;22.90;67.90;;;;;;5048954;28;20227;-89
2022/08/03 03:53:13;;;;;;;5.43;5.00;;;22.90;67.50;;;;;;5054838;28;20210;-88
2022/08/03 03:55:39;;;;;;;5.55;5.05;;;22.80;67.80;;;;;;5048272;28;20192;-88
2022/08/03 03:58:05;;;;;;;5.47;4.97;;;22.80;67.60;;;;;;5069019;28;20203;-88
2022/08/03 04:00:31;;;;;;;5.65;5.15;;;22.90;67.40;;;;;;5036149;28;20180;-88
2022/08/03 04:02:57;;;;;;;7.70;5.47;;;22.80;67.60;;;;;;5063802;28;20183;-88
2022/08/03 04:11:22;;;;;;;5.40;5.00;;;22.60;69.40;;;;;;5071635;28;20214;-89
2022/08/03 04:14:02;;;;;;;5.22;4.93;;;22.50;70.20;;;;;;5066431;28;20183;-90
2022/08/03 04:16:36;;;;;;;5.70;5.00;;;22.40;70.20;;;;;;5065151;28;20187;-90
2022/08/03 04:19:10;;;;;;;6.18;5.57;;;22.30;70.60;;;;;;5062525;28;20233;-90
2022/08/03 04:21:41;;;;;;;5.53;5.00;;;22.30;70.30;;;;;;5031706;28;20191;-90
2022/08/03 04:24:10;;;;;;;5.57;5.15;;;22.30;69.90;;;;;;5055809;28;20450;-86
2022/08/03 04:26:39;;;;;;;5.95;5.38;;;22.30;70.10;;;;;;5054873;28;20281;-85
2022/08/03 04:29:06;;;;;;;5.70;5.18;;;22.30;69.50;;;;;;5055209;28;20581;-86
2022/08/03 04:31:34;;;;;;;7.13;5.68;;;22.40;69.00;;;;;;5061913;28;20836;-86
2022/08/03 04:34:01;;;;;;;6.70;4.97;;;22.40;69.30;;;;;;5054584;28;20219;-86
2022/08/03 04:36:30;;;;;;;7.25;5.55;;;22.40;69.80;;;;;;5073559;28;20491;-85
2022/08/03 04:39:05;;;;;;;14.55;6.65;;;22.40;69.20;;;;;;5076034;28;20207;-85
2022/08/03 04:41:34;;;;;;;19.48;6.80;;;22.50;68.80;;;;;;5068206;28;20189;-87
2022/08/03 04:44:00;;;;;;;15.23;6.00;;;22.50;68.80;;;;;;5072926;28;20183;-86
2022/08/03 04:46:31;;;;;;;5.85;5.35;;;22.50;68.70;;;;;;5065177;28;20322;-88
2022/08/03 04:48:58;;;;;;;6.20;5.60;;;22.50;69.10;;;;;;5074109;28;20430;-85
2022/08/03 04:51:24;;;;;;;5.78;5.30;;;22.50;69.20;;;;;;5061927;28;20226;-85
2022/08/03 04:53:50;;;;;;;5.60;5.20;;;22.50;69.00;;;;;;5068291;28;20180;-85
2022/08/03 04:56:16;;;;;;;6.38;5.30;;;22.50;69.10;;;;;;5062614;28;20223;-86
2022/08/03 04:58:42;;;;;;;5.57;4.88;;;22.60;68.60;;;;;;5046240;28;20207;-85
2022/08/03 05:01:08;;;;;;;5.70;5.20;;;22.60;68.60;;;;;;5038709;28;20187;-84
2022/08/03 05:03:34;;;;;;;5.88;5.15;;;22.50;69.10;;;;;;5073806;28;20200;-85
2022/08/03 05:06:00;;;;;;;6.10;5.00;;;22.50;69.00;;;;;;5077887;28;20211;-86
2022/08/03 05:08:26;;;;;;;5.65;5.20;;;22.60;69.10;;;;;;5079021;28;20216;-85
2022/08/03 05:10:52;;;;;;;8.23;7.20;;;22.60;69.00;;;;;;5044906;28;20209;-84
2022/08/03 05:13:18;;;;;;;6.30;5.80;;;22.60;68.90;;;;;;5070736;28;20196;-85
2022/08/03 05:15:43;;;;;;;7.93;5.70;;;22.70;68.80;;;;;;5077210;28;20191;-84
2022/08/03 05:18:10;;;;;;;11.85;5.63;;;22.80;68.80;;;;;;5069613;28;20211;-84
2022/08/03 05:20:36;;;;;;;8.15;5.82;;;22.80;68.70;;;;;;5071671;28;20183;-85
2022/08/03 05:23:02;;;;;;;6.95;5.47;;;22.70;69.60;;;;;;5074770;28;20198;-85
2022/08/03 05:25:29;;;;;;;5.80;5.40;;;22.80;69.70;;;;;;5054972;28;20241;-85
2022/08/03 05:27:55;;;;;;;6.25;5.75;;;22.80;70.50;;;;;;5073985;28;20300;-85
2022/08/03 05:30:21;;;;;;;5.95;4.95;;;22.80;71.00;;;;;;5050250;28;20211;-84
2022/08/03 05:32:55;;;;;;;6.30;5.80;;;22.80;71.00;;;;;;5074790;28;20184;-85
2022/08/03 05:35:24;;;;;;;5.57;5.18;;;22.90;71.10;;;;;;5070602;28;20199;-85
2022/08/03 05:37:50;;;;;;;6.85;6.28;;;22.90;71.10;;;;;;5045375;28;20208;-85
2022/08/03 05:40:15;;;;;;;16.00;6.72;;;23.00;71.10;;;;;;5074987;28;20199;-84
2022/08/03 05:42:41;;;;;;;8.82;6.43;;;23.00;72.20;;;;;;5076232;28;20188;-86
2022/08/03 05:45:13;;;;;;;6.30;5.85;;;23.00;72.10;;;;;;5064805;28;20202;-85
2022/08/03 05:47:40;;;;;;;6.85;5.95;;;23.00;71.80;;;;;;5071738;28;20207;-86
2022/08/03 05:50:07;;;;;;;6.88;6.22;;;23.10;72.20;;;;;;5079783;28;20745;-85
2022/08/03 05:52:32;;;;;;;9.95;6.57;;;23.20;72.20;;;;;;5075344;28;20230;-84
2022/08/03 05:54:58;;;;;;;7.80;5.68;;;23.10;73.90;;;;;;5066788;28;20723;-87
2022/08/03 05:57:25;;;;;;;6.50;6.10;;;23.10;73.40;;;;;;5039640;28;20269;-86
2022/08/03 05:59:50;;;;;;;6.55;6.03;;;23.10;73.20;;;;;;5065075;28;20211;-86
2022/08/03 06:02:16;;;;;;;6.53;6.00;;;23.20;71.70;;;;;;5065701;28;20196;-85
2022/08/03 06:04:42;;;;;;;6.72;6.10;;;23.20;73.60;;;;;;5066554;28;20195;-85
2022/08/03 06:07:08;;;;;;;6.10;5.60;;;23.20;72.80;;;;;;5035659;28;20211;-85
2022/08/03 06:09:33;;;;;;;6.30;5.80;;;23.40;71.90;;;;;;5050813;28;20223;-86
2022/08/03 06:11:59;;;;;;;6.93;6.35;;;23.40;71.10;;;;;;5068298;28;20553;-86
2022/08/03 06:14:25;;;;;;;7.60;6.28;;;23.50;71.20;;;;;;5067952;28;20206;-85
2022/08/03 06:16:50;;;;;;;6.53;5.95;;;23.40;68.80;;;;;;5068614;28;20199;-85
2022/08/03 06:19:16;;;;;;;6.07;5.47;;;23.40;68.70;;;;;;5069367;28;20239;-84
2022/08/03 06:21:42;;;;;;;6.65;6.05;;;23.40;68.40;;;;;;5070706;28;20583;-88
2022/08/03 06:24:08;;;;;;;6.22;5.68;;;23.50;67.80;;;;;;5044502;28;20727;-88
2022/08/03 06:26:34;;;;;;;6.60;6.07;;;23.50;66.90;;;;;;5059720;28;20198;-88
2022/08/03 06:29:00;;;;;;;5.82;5.18;;;23.60;65.80;;;;;;5077017;28;20275;-88
2022/08/03 06:31:28;;;;;;;6.25;5.55;;;23.80;64.80;;;;;;5075525;28;20656;-90
2022/08/03 06:33:54;;;;;;;5.75;5.22;;;24.00;63.40;;;;;;5070391;28;20207;-88
2022/08/03 06:36:20;;;;;;;6.18;5.68;;;24.00;62.20;;;;;;5068394;28;20191;-87
2022/08/03 06:38:46;;;;;;;8.07;6.15;;;24.10;61.50;;;;;;5056187;28;20291;-89
2022/08/03 06:41:12;;;;;;;9.60;6.22;;;24.20;60.40;;;;;;5071184;28;20188;-87
2022/08/03 06:43:37;;;;;;;5.65;5.25;;;24.30;60.60;;;;;;5065845;28;20224;-88
2022/08/03 06:46:04;;;;;;;5.80;5.30;;;24.20;60.30;;;;;;5026457;28;20290;-88
2022/08/03 06:48:30;;;;;;;8.32;6.32;;;24.30;58.60;;;;;;5071254;28;20219;-89
2022/08/03 06:50:56;;;;;;;10.00;6.25;;;24.40;58.60;;;;;;5068722;28;20199;-88
2022/08/03 06:53:22;;;;;;;6.53;5.93;;;24.40;57.60;;;;;;5071275;28;20246;-88
2022/08/03 06:55:47;;;;;;;6.00;5.50;;;24.40;58.30;;;;;;5074063;28;20274;-88
2022/08/03 06:58:13;;;;;;;6.20;5.68;;;24.50;57.80;;;;;;5066850;28;20212;-90
2022/08/03 07:00:39;;;;;;;17.38;6.53;;;24.50;57.30;;;;;;5075291;28;20687;-87
2022/08/03 07:03:05;;;;;;;6.10;5.50;;;24.70;57.10;;;;;;5051411;28;20183;-88
2022/08/03 07:05:33;;;;;;;5.82;5.35;;;24.80;56.50;;;;;;5049202;28;20264;-88
2022/08/03 07:08:00;;;;;;;6.70;6.00;;;24.80;55.60;;;;;;5072876;28;20257;-87
2022/08/03 07:10:27;;;;;;;8.23;7.43;;;24.90;55.40;;;;;;5074155;28;20779;-88
2022/08/03 07:12:53;;;;;;;6.35;5.75;;;24.90;55.30;;;;;;5046851;28;20188;-88
2022/08/03 07:15:19;;;;;;;6.25;5.75;;;24.90;55.50;;;;;;5061024;28;20214;-87
2022/08/03 07:17:44;;;;;;;6.30;5.70;;;24.90;55.50;;;;;;5053434;28;20211;-88
2022/08/03 07:20:12;;;;;;;7.75;5.30;;;25.00;54.70;;;;;;5078341;28;20199;-88
2022/08/03 07:22:38;;;;;;;7.13;5.90;;;25.10;54.80;;;;;;5068962;28;20184;-88
2022/08/03 07:25:04;;;;;;;6.43;5.63;;;25.30;55.30;;;;;;5072275;28;20226;-88
2022/08/03 07:27:30;;;;;;;7.72;5.55;;;25.30;54.50;;;;;;5060995;28;20183;-89
2022/08/03 07:29:57;;;;;;;9.85;5.00;;;25.50;54.70;;;;;;5092874;28;20246;-88
2022/08/03 07:32:23;;;;;;;7.80;5.18;;;25.50;54.40;;;;;;5066689;28;20243;-89
2022/08/03 07:34:49;;;;;;;5.75;5.25;;;25.60;53.40;;;;;;5049700;28;20263;-88
2022/08/03 07:37:15;;;;;;;6.55;5.47;;;25.60;52.60;;;;;;5054794;28;20191;-88
2022/08/03 07:39:41;;;;;;;5.45;4.95;;;25.70;52.40;;;;;;5055876;28;20216;-88
2022/08/03 07:42:06;;;;;;;5.75;5.25;;;25.70;53.10;;;;;;5071797;28;20250;-88
2022/08/03 07:44:32;;;;;;;6.80;5.57;;;25.80;52.40;;;;;;5059695;28;20180;-88
2022/08/03 07:46:58;;;;;;;6.90;5.28;;;26.00;52.70;;;;;;5059784;28;20275;-89
2022/08/03 07:49:24;;;;;;;6.45;5.80;;;26.10;52.60;;;;;;5068247;28;20211;-88
2022/08/03 07:52:46;;;;;;;6.88;5.43;;;26.10;51.40;;;;;;5066472;28;20201;-89
2022/08/03 07:54:35;;;;;;;5.70;5.20;;;26.20;51.30;;;;;;5058146;28;20196;-88
2022/08/03 07:57:01;;;;;;;5.68;5.13;;;26.20;50.50;;;;;;5066009;28;20454;-88
2022/08/03 07:59:27;;;;;;;6.20;4.82;;;26.40;50.20;;;;;;5067438;28;20266;-89
2022/08/03 08:01:52;;;;;;;5.57;5.18;;;26.50;50.80;;;;;;5075268;28;20184;-88
2022/08/03 08:04:18;;;;;;;5.88;5.38;;;26.50;49.80;;;;;;5044750;28;20185;-88
2022/08/03 08:06:44;;;;;;;5.20;4.70;;;26.60;49.70;;;;;;5062867;28;20227;-88
2022/08/03 08:09:10;;;;;;;5.68;5.25;;;26.60;50.40;;;;;;5048623;28;20211;-88
2022/08/03 08:11:36;;;;;;;6.28;5.68;;;26.80;49.60;;;;;;5023890;28;20215;-88
2022/08/03 08:14:03;;;;;;;5.65;5.10;;;26.90;49.70;;;;;;5075244;28;20190;-88
2022/08/03 08:16:29;;;;;;;6.40;5.90;;;27.00;50.00;;;;;;5069220;28;20188;-88
2022/08/03 08:18:55;;;;;;;5.68;5.18;;;27.10;50.50;;;;;;5058651;28;20196;-88
2022/08/03 08:21:21;;;;;;;9.20;5.97;;;27.30;50.50;;;;;;5063444;28;20195;-88
2022/08/03 08:23:47;;;;;;;5.65;5.10;;;27.40;49.20;;;;;;5052080;28;20545;-88
2022/08/03 08:26:12;;;;;;;5.70;5.20;;;27.50;48.20;;;;;;5062153;28;20210;-89
2022/08/03 08:28:38;;;;;;;6.07;5.55;;;27.70;48.30;;;;;;5052294;28;20262;-88
2022/08/03 08:31:04;;;;;;;5.90;5.38;;;27.70;47.60;;;;;;5054174;28;20691;-89
2022/08/03 08:33:31;;;;;;;6.15;5.55;;;27.80;46.70;;;;;;5034829;28;20231;-89
2022/08/03 08:35:56;;;;;;;5.40;5.00;;;27.80;46.50;;;;;;5079351;28;20283;-89
2022/08/03 08:38:26;;;;;;;6.32;5.63;;;27.80;45.70;;;;;;5054723;28;20229;-89
2022/08/03 08:40:54;;;;;;;5.75;5.25;;;27.80;45.80;;;;;;5065869;28;20193;-88
2022/08/03 08:43:21;;;;;;;6.15;5.40;;;28.00;45.80;;;;;;5046775;28;20191;-89
2022/08/03 08:45:49;;;;;;;6.10;5.50;;;27.90;47.20;;;;;;5049575;28;20195;-89
2022/08/03 08:48:21;;;;;;;6.45;5.65;;;28.10;46.40;;;;;;5066528;28;20347;-88
2022/08/03 08:50:48;;;;;;;5.47;5.03;;;28.30;46.10;;;;;;5059150;28;20215;-89
2022/08/03 08:53:15;;;;;;;5.63;5.13;;;28.60;45.00;;;;;;5033875;28;20242;-89
2022/08/03 08:55:45;;;;;;;5.85;5.28;;;28.40;45.60;;;;;;5050745;28;20668;-89
2022/08/03 08:58:11;;;;;;;6.47;5.55;;;28.60;44.00;;;;;;5066958;28;20199;-89
2022/08/03 09:00:37;;;;;;;5.38;4.93;;;28.60;44.90;;;;;;5052985;28;20191;-89
2022/08/03 09:03:03;;;;;;;5.70;5.25;;;28.80;44.30;;;;;;5067728;28;20287;-89
2022/08/03 09:05:32;;;;;;;5.43;5.03;;;29.00;44.50;;;;;;5047535;28;20183;-89
2022/08/03 09:07:58;;;;;;;5.68;5.20;;;29.20;42.50;;;;;;5071582;28;20213;-88
2022/08/03 09:10:24;;;;;;;10.20;6.07;;;29.40;42.30;;;;;;5065633;28;20267;-88
2022/08/03 09:12:51;;;;;;;5.60;5.20;;;29.40;42.80;;;;;;5065619;28;20238;-89
2022/08/03 09:15:20;;;;;;;5.95;5.55;;;29.70;42.00;;;;;;5062934;28;20598;-89
2022/08/03 09:17:46;;;;;;;6.05;5.63;;;29.80;41.50;;;;;;5059620;28;20207;-88
2022/08/03 09:20:12;;;;;;;6.25;5.68;;;29.90;41.00;;;;;;5065471;28;20183;-88
2022/08/03 09:23:08;;;;;;;5.63;5.22;;;29.80;41.70;;;;;;5064210;28;20188;-88
2022/08/03 09:25:35;;;;;;;6.45;5.50;;;29.90;41.30;;;;;;5050645;28;20722;-89
2022/08/03 09:28:15;;;;;;;5.85;5.22;;;30.10;41.30;;;;;;5067957;28;20215;-88
2022/08/03 09:30:44;;;;;;;5.35;5.03;;;30.40;40.40;;;;;;5075060;28;20203;-89
2022/08/03 09:33:15;;;;;;;6.68;5.60;;;30.60;40.80;;;;;;5061670;28;20269;-88
2022/08/03 09:35:43;;;;;;;5.55;5.20;;;30.70;38.50;;;;;;5063451;28;20199;-89
2022/08/03 09:38:24;;;;;;;9.85;5.57;;;30.70;39.40;;;;;;5050437;28;20212;-89
2022/08/03 09:40:51;;;;;;;6.15;5.65;;;31.00;39.80;;;;;;5066187;28;20184;-88
2022/08/03 09:43:17;;;;;;;6.40;5.72;;;31.10;39.10;;;;;;5067895;28;20291;-90
2022/08/03 09:45:43;;;;;;;6.45;5.85;;;31.30;38.30;;;;;;5069644;28;20697;-89
2022/08/03 09:48:26;;;;;;;6.93;5.72;;;31.40;38.50;;;;;;5074971;28;20207;-89
2022/08/03 09:50:53;;;;;;;6.30;5.82;;;31.30;38.60;;;;;;5043938;28;20204;-90
2022/08/03 09:53:20;;;;;;;6.07;5.57;;;31.40;38.00;;;;;;5062316;28;20191;-90
2022/08/03 09:55:58;;;;;;;6.28;5.88;;;31.60;38.40;;;;;;5034913;28;20191;-90
2022/08/03 09:58:26;;;;;;;6.00;5.40;;;32.00;37.70;;;;;;5052114;28;20238;-90
2022/08/03 10:01:02;;;;;;;6.40;5.82;;;32.00;37.20;;;;;;5074604;28;20192;-91
2022/08/03 10:03:31;;;;;;;5.90;5.40;;;32.10;37.10;;;;;;5072320;28;20186;-89
2022/08/03 10:05:57;;;;;;;6.28;5.68;;;32.30;36.70;;;;;;5070998;28;20279;-90
2022/08/03 10:08:23;;;;;;;6.20;5.80;;;32.50;36.90;;;;;;5063597;28;20214;-89
2022/08/03 10:10:53;;;;;;;6.45;5.95;;;32.50;36.10;;;;;;5069421;28;20208;-89
2022/08/03 10:13:20;;;;;;;6.13;5.47;;;32.50;36.70;;;;;;5073244;28;20173;-89
2022/08/03 10:15:46;;;;;;;5.80;5.38;;;32.50;35.90;;;;;;5032041;28;20195;-88
2022/08/03 10:18:15;;;;;;;5.95;5.55;;;32.70;36.10;;;;;;5052926;28;20314;-89
2022/08/03 10:20:47;;;;;;;6.50;5.55;;;32.50;37.10;;;;;;5057654;28;20294;-89
2022/08/03 10:23:15;;;;;;;6.57;5.80;;;32.90;36.70;;;;;;5050871;28;20180;-89
2022/08/03 10:25:45;;;;;;;5.80;5.30;;;33.20;35.60;;;;;;5073912;28;20195;-89
2022/08/03 10:28:14;;;;;;;6.22;5.68;;;33.20;34.80;;;;;;5059328;28;20224;-89
2022/08/03 10:30:42;;;;;;;5.97;5.45;;;33.50;34.30;;;;;;5072264;28;20263;-89
2022/08/03 10:33:29;;;;;;;5.53;5.07;;;33.60;33.80;;;;;;5071234;28;20203;-88
2022/08/03 10:35:57;;;;;;;6.47;5.40;;;33.70;34.10;;;;;;5065919;28;20184;-90
2022/08/03 10:38:39;;;;;;;5.55;5.25;;;34.00;33.90;;;;;;5067458;28;20211;-90
2022/08/03 10:41:06;;;;;;;5.50;5.20;;;34.20;32.60;;;;;;5071867;28;20797;-88
2022/08/03 10:43:41;;;;;;;5.40;5.05;;;34.00;32.80;;;;;;5068578;28;20187;-88
2022/08/03 10:46:07;;;;;;;5.05;4.65;;;34.10;33.80;;;;;;5076639;28;20190;-89
2022/08/03 10:48:34;;;;;;;6.65;6.15;;;34.40;32.60;;;;;;5055707;28;20242;-89
2022/08/03 10:51:00;;;;;;;5.55;5.15;;;34.00;33.30;;;;;;5069479;28;20195;-90
2022/08/03 10:53:37;;;;;;;5.00;4.55;;;34.00;34.10;;;;;;5040932;28;20184;-89
2022/08/03 10:58:53;;;;;;;6.22;4.80;;;34.50;31.30;;;;;;5075981;28;20261;-89
2022/08/03 11:01:39;;;;;;;5.60;5.20;;;34.40;32.80;;;;;;5044311;28;20669;-89
2022/08/03 11:04:24;;;;;;;5.57;5.28;;;34.90;31.20;;;;;;5067748;28;20195;-88
2022/08/03 11:07:22;;;;;;;5.82;5.50;;;35.30;31.10;;;;;;5044569;28;20214;-88
2022/08/03 11:09:50;;;;;;;5.65;5.22;;;35.50;30.20;;;;;;5064565;28;20249;-89
2022/08/03 11:12:26;;;;;;;5.80;5.50;;;35.60;30.30;;;;;;5071882;28;20180;-88
2022/08/03 11:14:59;;;;;;;5.72;5.43;;;35.50;30.10;;;;;;5043900;28;20195;-91
2022/08/03 11:17:25;;;;;;;5.63;5.32;;;35.70;29.90;;;;;;5036832;28;20726;-90
2022/08/03 11:19:52;;;;;;;5.55;5.22;;;35.90;29.20;;;;;;5045967;28;20227;-89
2022/08/03 11:22:19;;;;;;;6.07;5.78;;;36.00;29.40;;;;;;5037042;28;20675;-90
2022/08/03 11:24:49;;;;;;;6.30;5.82;;;36.30;29.40;;;;;;5053786;28;20189;-90
2022/08/03 11:27:41;;;;;;;6.32;5.93;;;36.10;29.20;;;;;;5061409;28;20198;-89
2022/08/03 11:30:19;;;;;;;6.28;5.88;;;36.20;29.40;;;;;;5053530;28;20266;-88
2022/08/03 11:32:46;;;;;;;6.22;5.93;;;36.40;28.60;;;;;;5048172;28;20183;-90
2022/08/03 11:35:45;;;;;;;6.35;5.90;;;36.60;28.30;;;;;;5057798;28;20198;-92
2022/08/03 11:38:11;;;;;;;6.63;6.30;;;36.40;28.80;;;;;;5031992;28;20242;-88
2022/08/03 11:40:40;;;;;;;7.05;6.40;;;36.60;28.50;;;;;;5061782;28;20194;-89
2022/08/03 11:43:24;;;;;;;6.75;6.35;;;36.80;28.00;;;;;;5046372;28;20180;-90
2022/08/03 11:46:21;;;;;;;6.75;6.30;;;37.20;28.10;;;;;;5047068;28;20207;-90
2022/08/03 11:48:49;;;;;;;6.65;6.18;;;37.10;27.90;;;;;;5068679;28;20207;-90
2022/08/03 11:51:21;;;;;;;6.70;6.20;;;37.30;28.30;;;;;;5067301;28;20207;-89
2022/08/03 11:54:01;;;;;;;6.75;6.25;;;37.50;28.00;;;;;;5064223;28;20258;-90
2022/08/03 11:56:27;;;;;;;6.70;6.10;;;37.60;27.70;;;;;;5057536;28;20176;-88
2022/08/03 11:58:58;;;;;;;6.50;6.10;;;37.70;27.80;;;;;;5041531;28;20207;-90
2022/08/03 12:01:24;;;;;;;6.30;6.00;;;38.00;27.30;;;;;;5060026;28;20183;-89
2022/08/03 12:03:50;;;;;;;6.13;5.82;;;38.00;27.30;;;;;;5065787;28;20206;-90
2022/08/03 12:06:17;;;;;;;7.03;6.40;;;38.10;27.20;;;;;;5047309;28;20728;-90
2022/08/03 12:08:44;;;;;;;6.70;6.28;;;38.00;27.20;;;;;;5065101;28;20322;-91
2022/08/03 12:11:14;;;;;;;6.43;6.13;;;37.70;27.40;;;;;;5052074;28;20563;-89
2022/08/03 12:13:42;;;;;;;6.50;6.10;;;37.90;27.20;;;;;;5066326;28;20650;-89
2022/08/03 12:16:08;;;;;;;6.75;6.35;;;38.20;26.80;;;;;;5050034;28;20198;-92
2022/08/03 12:18:35;;;;;;;6.82;6.13;;;38.40;26.50;;;;;;5053995;28;20206;-93
2022/08/03 12:21:07;;;;;;;6.82;6.22;;;38.50;26.20;;;;;;5054022;28;20187;-90
2022/08/03 12:23:33;;;;;;;6.40;6.10;;;38.80;26.30;;;;;;5051473;28;20182;-90
2022/08/03 12:26:07;;;;;;;6.25;5.80;;;38.80;25.90;;;;;;5068086;28;20190;-91
2022/08/03 12:28:33;;;;;;;6.28;5.93;;;39.20;26.10;;;;;;5063898;28;20198;-90
2022/08/03 12:31:06;;;;;;;6.43;6.03;;;39.00;26.30;;;;;;5068109;28;20226;-91
2022/08/03 12:33:52;;;;;;;6.97;6.60;;;38.90;26.10;;;;;;5047113;28;20230;-91
2022/08/03 12:36:18;;;;;;;7.05;6.43;;;39.10;25.80;;;;;;5070290;28;20201;-89
2022/08/03 12:38:55;;;;;;;6.53;6.18;;;38.70;25.80;;;;;;5050277;28;20203;-91
2022/08/03 12:41:32;;;;;;;6.40;6.10;;;38.80;25.80;;;;;;5062598;28;20187;-91
2022/08/03 12:43:58;;;;;;;6.93;6.45;;;39.00;25.70;;;;;;5058956;28;20200;-92
2022/08/03 12:46:33;;;;;;;6.25;5.95;;;39.50;25.10;;;;;;5056883;28;20274;-90
2022/08/03 12:49:17;;;;;;;6.75;6.45;;;39.60;25.60;;;;;;5053933;28;20270;-89
2022/08/03 12:51:43;;;;;;;7.22;6.72;;;39.80;25.20;;;;;;5060714;28;20195;-91
2022/08/03 12:54:16;;;;;;;7.00;6.68;;;39.80;25.00;;;;;;5049989;28;20703;-91
2022/08/03 12:57:02;;;;;;;7.18;6.78;;;40.10;25.30;;;;;;5070713;28;20619;-90
2022/08/03 12:59:34;;;;;;;7.28;6.88;;;40.10;26.00;;;;;;5069594;28;20275;-89
2022/08/03 13:02:00;;;;;;;7.10;6.70;;;40.00;25.40;;;;;;5050478;28;20184;-91
2022/08/03 13:04:27;;;;;;;6.90;6.60;;;40.20;24.70;;;;;;5069997;28;20202;-90